sensor_id;sensor_type;location;lat;lon;timestamp;P1;durP1;ratioP1;P2;durP2;ratioP2
12141;SDS011;6134;59.284;18.022;2023-04-25T00:01:27;4.07;;;3.25;;
12141;SDS011;6134;59.284;18.022;2023-04-25T00:03:55;3.65;;;3.05;;
12141;SDS011;6134;59.284;18.022;2023-04-25T00:06:25;2.85;;;2.58;;
12141;SDS011;6134;59.284;18.022;2023-04-25T00:08:53;3.55;;;3.15;;
12141;SDS011;6134;59.284;18.022;2023-04-25T00:11:24;3.10;;;2.80;;
12141;SDS011;6134;59.284;18.022;2023-04-25T00:13:53;3.03;;;2.70;;
12141;SDS011;6134;59.284;18.022;2023-04-25T00:16:21;3.65;;;3.30;;
12141;SDS011;6134;59.284;18.022;2023-04-25T00:18:50;4.00;;;3.20;;
12141;SDS011;6134;59.284;18.022;2023-04-25T00:21:20;4.30;;;2.88;;
12141;SDS011;6134;59.284;18.022;2023-04-25T00:23:52;3.15;;;2.85;;
12141;SDS011;6134;59.284;18.022;2023-04-25T00:26:20;3.38;;;3.08;;
12141;SDS011;6134;59.284;18.022;2023-04-25T00:28:51;2.80;;;2.60;;
12141;SDS011;6134;59.284;18.022;2023-04-25T00:31:19;4.43;;;3.30;;
12141;SDS011;6134;59.284;18.022;2023-04-25T00:33:48;3.17;;;2.88;;
12141;SDS011;6134;59.284;18.022;2023-04-25T00:36:17;4.10;;;3.15;;
12141;SDS011;6134;59.284;18.022;2023-04-25T00:38:46;2.92;;;2.70;;
12141;SDS011;6134;59.284;18.022;2023-04-25T00:41:15;2.58;;;2.38;;
12141;SDS011;6134;59.284;18.022;2023-04-25T00:43:44;3.05;;;2.60;;
12141;SDS011;6134;59.284;18.022;2023-04-25T00:46:16;3.58;;;3.03;;
12141;SDS011;6134;59.284;18.022;2023-04-25T00:48:44;4.07;;;3.08;;
12141;SDS011;6134;59.284;18.022;2023-04-25T00:51:14;3.85;;;2.78;;
12141;SDS011;6134;59.284;18.022;2023-04-25T00:53:44;3.30;;;2.22;;
12141;SDS011;6134;59.284;18.022;2023-04-25T00:56:13;2.60;;;2.40;;
12141;SDS011;6134;59.284;18.022;2023-04-25T00:58:42;2.65;;;2.30;;
12141;SDS011;6134;59.284;18.022;2023-04-25T01:01:11;2.30;;;1.98;;
12141;SDS011;6134;59.284;18.022;2023-04-25T01:03:41;3.47;;;2.38;;
12141;SDS011;6134;59.284;18.022;2023-04-25T01:06:11;2.53;;;2.33;;
12141;SDS011;6134;59.284;18.022;2023-04-25T01:08:42;2.20;;;2.00;;
12141;SDS011;6134;59.284;18.022;2023-04-25T01:11:11;3.13;;;1.98;;
12141;SDS011;6134;59.284;18.022;2023-04-25T01:13:41;2.08;;;1.80;;
12141;SDS011;6134;59.284;18.022;2023-04-25T01:16:09;2.75;;;1.90;;
12141;SDS011;6134;59.284;18.022;2023-04-25T01:18:38;3.25;;;1.90;;
12141;SDS011;6134;59.284;18.022;2023-04-25T01:21:10;2.83;;;1.60;;
12141;SDS011;6134;59.284;18.022;2023-04-25T01:23:40;1.50;;;1.40;;
12141;SDS011;6134;59.284;18.022;2023-04-25T01:26:10;2.13;;;1.55;;
12141;SDS011;6134;59.284;18.022;2023-04-25T01:28:39;2.17;;;1.48;;
12141;SDS011;6134;59.284;18.022;2023-04-25T01:31:09;2.22;;;2.03;;
12141;SDS011;6134;59.284;18.022;2023-04-25T01:33:39;1.52;;;1.42;;
12141;SDS011;6134;59.284;18.022;2023-04-25T01:36:10;1.90;;;1.73;;
12141;SDS011;6134;59.284;18.022;2023-04-25T01:38:39;1.70;;;1.60;;
12141;SDS011;6134;59.284;18.022;2023-04-25T01:41:07;1.42;;;1.33;;
12141;SDS011;6134;59.284;18.022;2023-04-25T01:43:37;1.55;;;1.45;;
12141;SDS011;6134;59.284;18.022;2023-04-25T01:46:06;1.50;;;1.40;;
12141;SDS011;6134;59.284;18.022;2023-04-25T01:48:35;1.73;;;1.38;;
12141;SDS011;6134;59.284;18.022;2023-04-25T01:51:04;2.38;;;1.80;;
12141;SDS011;6134;59.284;18.022;2023-04-25T01:53:35;1.73;;;1.55;;
12141;SDS011;6134;59.284;18.022;2023-04-25T01:56:04;1.60;;;1.42;;
12141;SDS011;6134;59.284;18.022;2023-04-25T01:58:34;2.47;;;1.50;;
12141;SDS011;6134;59.284;18.022;2023-04-25T02:01:12;1.67;;;1.58;;
12141;SDS011;6134;59.284;18.022;2023-04-25T02:03:47;3.20;;;2.03;;
12141;SDS011;6134;59.284;18.022;2023-04-25T02:06:24;1.63;;;1.52;;
12141;SDS011;6134;59.284;18.022;2023-04-25T02:08:57;1.60;;;1.50;;
12141;SDS011;6134;59.284;18.022;2023-04-25T02:11:26;1.88;;;1.58;;
12141;SDS011;6134;59.284;18.022;2023-04-25T02:14:17;1.17;;;1.02;;
12141;SDS011;6134;59.284;18.022;2023-04-25T02:16:56;1.30;;;1.20;;
12141;SDS011;6134;59.284;18.022;2023-04-25T02:19:25;1.60;;;1.00;;
12141;SDS011;6134;59.284;18.022;2023-04-25T02:21:54;1.48;;;1.17;;
12141;SDS011;6134;59.284;18.022;2023-04-25T02:24:25;1.17;;;1.08;;
12141;SDS011;6134;59.284;18.022;2023-04-25T02:26:55;0.80;;;0.80;;
12141;SDS011;6134;59.284;18.022;2023-04-25T02:29:24;1.00;;;0.90;;
12141;SDS011;6134;59.284;18.022;2023-04-25T02:31:52;1.05;;;0.90;;
12141;SDS011;6134;59.284;18.022;2023-04-25T02:34:22;1.17;;;0.80;;
12141;SDS011;6134;59.284;18.022;2023-04-25T02:36:50;1.02;;;0.93;;
12141;SDS011;6134;59.284;18.022;2023-04-25T02:39:19;1.05;;;1.00;;
12141;SDS011;6134;59.284;18.022;2023-04-25T02:41:50;1.15;;;1.05;;
12141;SDS011;6134;59.284;18.022;2023-04-25T02:44:20;1.10;;;1.00;;
12141;SDS011;6134;59.284;18.022;2023-04-25T02:46:49;1.00;;;0.90;;
12141;SDS011;6134;59.284;18.022;2023-04-25T02:49:18;0.90;;;0.90;;
12141;SDS011;6134;59.284;18.022;2023-04-25T02:51:46;0.95;;;0.82;;
12141;SDS011;6134;59.284;18.022;2023-04-25T02:54:16;0.90;;;0.90;;
12141;SDS011;6134;59.284;18.022;2023-04-25T02:56:46;1.10;;;0.90;;
12141;SDS011;6134;59.284;18.022;2023-04-25T02:59:24;0.85;;;0.85;;
12141;SDS011;6134;59.284;18.022;2023-04-25T03:01:52;1.00;;;0.90;;
12141;SDS011;6134;59.284;18.022;2023-04-25T03:04:22;0.95;;;0.93;;
12141;SDS011;6134;59.284;18.022;2023-04-25T03:06:51;0.88;;;0.88;;
12141;SDS011;6134;59.284;18.022;2023-04-25T03:09:21;0.90;;;0.90;;
12141;SDS011;6134;59.284;18.022;2023-04-25T03:11:50;0.90;;;0.90;;
12141;SDS011;6134;59.284;18.022;2023-04-25T03:14:19;0.80;;;0.80;;
12141;SDS011;6134;59.284;18.022;2023-04-25T03:16:50;0.93;;;0.90;;
12141;SDS011;6134;59.284;18.022;2023-04-25T03:19:19;0.63;;;0.63;;
12141;SDS011;6134;59.284;18.022;2023-04-25T03:21:48;0.80;;;0.80;;
12141;SDS011;6134;59.284;18.022;2023-04-25T03:24:17;0.88;;;0.88;;
12141;SDS011;6134;59.284;18.022;2023-04-25T03:26:45;1.10;;;1.00;;
12141;SDS011;6134;59.284;18.022;2023-04-25T03:29:14;2.08;;;0.80;;
12141;SDS011;6134;59.284;18.022;2023-04-25T03:31:43;0.90;;;0.90;;
12141;SDS011;6134;59.284;18.022;2023-04-25T03:34:14;0.80;;;0.80;;
12141;SDS011;6134;59.284;18.022;2023-04-25T03:36:43;0.80;;;0.80;;
12141;SDS011;6134;59.284;18.022;2023-04-25T03:39:13;1.48;;;0.98;;
12141;SDS011;6134;59.284;18.022;2023-04-25T03:41:46;1.35;;;1.00;;
12141;SDS011;6134;59.284;18.022;2023-04-25T03:44:17;0.98;;;0.98;;
12141;SDS011;6134;59.284;18.022;2023-04-25T03:46:45;0.80;;;0.80;;
12141;SDS011;6134;59.284;18.022;2023-04-25T03:49:17;1.17;;;1.08;;
12141;SDS011;6134;59.284;18.022;2023-04-25T03:52:12;0.90;;;0.90;;
12141;SDS011;6134;59.284;18.022;2023-04-25T03:54:40;1.20;;;1.10;;
12141;SDS011;6134;59.284;18.022;2023-04-25T03:57:15;1.10;;;1.00;;
12141;SDS011;6134;59.284;18.022;2023-04-25T03:59:44;1.15;;;1.05;;
12141;SDS011;6134;59.284;18.022;2023-04-25T04:02:14;0.90;;;0.90;;
12141;SDS011;6134;59.284;18.022;2023-04-25T04:04:45;2.33;;;1.10;;
12141;SDS011;6134;59.284;18.022;2023-04-25T04:07:15;1.23;;;1.05;;
12141;SDS011;6134;59.284;18.022;2023-04-25T04:09:46;1.40;;;1.15;;
12141;SDS011;6134;59.284;18.022;2023-04-25T04:12:23;1.15;;;1.05;;
12141;SDS011;6134;59.284;18.022;2023-04-25T04:14:52;2.55;;;2.35;;
12141;SDS011;6134;59.284;18.022;2023-04-25T04:17:21;1.45;;;1.35;;
12141;SDS011;6134;59.284;18.022;2023-04-25T04:19:52;1.30;;;1.20;;
12141;SDS011;6134;59.284;18.022;2023-04-25T04:22:21;1.38;;;1.27;;
12141;SDS011;6134;59.284;18.022;2023-04-25T04:24:54;1.58;;;1.48;;
12141;SDS011;6134;59.284;18.022;2023-04-25T04:27:43;2.53;;;1.40;;
12141;SDS011;6134;59.284;18.022;2023-04-25T04:30:22;2.15;;;1.75;;
12141;SDS011;6134;59.284;18.022;2023-04-25T04:32:58;1.83;;;1.55;;
12141;SDS011;6134;59.284;18.022;2023-04-25T04:35:29;2.33;;;1.70;;
12141;SDS011;6134;59.284;18.022;2023-04-25T04:37:58;2.38;;;2.00;;
12141;SDS011;6134;59.284;18.022;2023-04-25T04:40:32;2.13;;;1.60;;
12141;SDS011;6134;59.284;18.022;2023-04-25T04:43:39;2.58;;;2.05;;
12141;SDS011;6134;59.284;18.022;2023-04-25T04:46:43;2.40;;;1.77;;
12141;SDS011;6134;59.284;18.022;2023-04-25T04:49:19;2.15;;;1.95;;
12141;SDS011;6134;59.284;18.022;2023-04-25T04:52:12;2.30;;;2.10;;
12141;SDS011;6134;59.284;18.022;2023-04-25T04:54:53;3.13;;;2.53;;
12141;SDS011;6134;59.284;18.022;2023-04-25T04:57:58;4.60;;;2.60;;
12141;SDS011;6134;59.284;18.022;2023-04-25T05:00:56;3.45;;;2.38;;
12141;SDS011;6134;59.284;18.022;2023-04-25T05:03:54;5.05;;;3.00;;
12141;SDS011;6134;59.284;18.022;2023-04-25T05:06:59;3.20;;;2.58;;
12141;SDS011;6134;59.284;18.022;2023-04-25T05:09:32;3.97;;;2.40;;
12141;SDS011;6134;59.284;18.022;2023-04-25T05:12:04;3.38;;;2.97;;
12141;SDS011;6134;59.284;18.022;2023-04-25T05:14:53;7.50;;;3.40;;
12141;SDS011;6134;59.284;18.022;2023-04-25T05:17:51;4.50;;;3.00;;
12141;SDS011;6134;59.284;18.022;2023-04-25T05:20:27;4.60;;;2.80;;
12141;SDS011;6134;59.284;18.022;2023-04-25T05:23:14;4.13;;;2.95;;
12141;SDS011;6134;59.284;18.022;2023-04-25T05:25:55;4.57;;;3.20;;
12141;SDS011;6134;59.284;18.022;2023-04-25T05:28:50;3.75;;;3.10;;
12141;SDS011;6134;59.284;18.022;2023-04-25T05:31:37;3.92;;;3.17;;
12141;SDS011;6134;59.284;18.022;2023-04-25T05:34:12;4.22;;;2.85;;
12141;SDS011;6134;59.284;18.022;2023-04-25T05:36:51;4.85;;;3.38;;
12141;SDS011;6134;59.284;18.022;2023-04-25T05:39:19;5.72;;;3.35;;
12141;SDS011;6134;59.284;18.022;2023-04-25T05:42:08;3.05;;;2.75;;
12141;SDS011;6134;59.284;18.022;2023-04-25T05:45:00;3.95;;;3.10;;
12141;SDS011;6134;59.284;18.022;2023-04-25T05:47:44;4.72;;;3.70;;
12141;SDS011;6134;59.284;18.022;2023-04-25T05:50:33;3.33;;;2.83;;
12141;SDS011;6134;59.284;18.022;2023-04-25T05:53:21;9.73;;;3.35;;
12141;SDS011;6134;59.284;18.022;2023-04-25T05:55:58;4.75;;;2.63;;
12141;SDS011;6134;59.284;18.022;2023-04-25T05:58:29;3.70;;;3.33;;
12141;SDS011;6134;59.284;18.022;2023-04-25T06:00:59;4.68;;;2.95;;
12141;SDS011;6134;59.284;18.022;2023-04-25T06:03:28;5.05;;;2.65;;
12141;SDS011;6134;59.284;18.022;2023-04-25T06:05:58;5.70;;;4.75;;
12141;SDS011;6134;59.284;18.022;2023-04-25T06:08:27;4.57;;;2.83;;
12141;SDS011;6134;59.284;18.022;2023-04-25T06:10:56;4.72;;;3.45;;
12141;SDS011;6134;59.284;18.022;2023-04-25T06:13:25;4.90;;;2.72;;
12141;SDS011;6134;59.284;18.022;2023-04-25T06:15:56;4.30;;;2.17;;
12141;SDS011;6134;59.284;18.022;2023-04-25T06:18:25;3.22;;;2.20;;
12141;SDS011;6134;59.284;18.022;2023-04-25T06:20:54;2.78;;;2.20;;
12141;SDS011;6134;59.284;18.022;2023-04-25T06:23:23;2.28;;;2.08;;
12141;SDS011;6134;59.284;18.022;2023-04-25T06:26:02;2.22;;;2.03;;
12141;SDS011;6134;59.284;18.022;2023-04-25T06:28:32;2.67;;;2.00;;
12141;SDS011;6134;59.284;18.022;2023-04-25T06:31:02;2.72;;;2.15;;
12141;SDS011;6134;59.284;18.022;2023-04-25T06:33:31;2.03;;;1.85;;
12141;SDS011;6134;59.284;18.022;2023-04-25T06:36:01;3.10;;;2.10;;
12141;SDS011;6134;59.284;18.022;2023-04-25T06:38:30;2.25;;;1.80;;
12141;SDS011;6134;59.284;18.022;2023-04-25T06:41:01;2.55;;;1.75;;
12141;SDS011;6134;59.284;18.022;2023-04-25T06:43:33;3.40;;;1.90;;
12141;SDS011;6134;59.284;18.022;2023-04-25T06:46:24;2.22;;;2.03;;
12141;SDS011;6134;59.284;18.022;2023-04-25T06:48:54;2.90;;;1.90;;
12141;SDS011;6134;59.284;18.022;2023-04-25T06:51:23;1.70;;;1.60;;
12141;SDS011;6134;59.284;18.022;2023-04-25T06:53:55;2.22;;;1.75;;
12141;SDS011;6134;59.284;18.022;2023-04-25T06:56:39;2.30;;;1.80;;
12141;SDS011;6134;59.284;18.022;2023-04-25T06:59:13;1.95;;;1.67;;
12141;SDS011;6134;59.284;18.022;2023-04-25T07:01:46;4.13;;;2.42;;
12141;SDS011;6134;59.284;18.022;2023-04-25T07:04:18;3.00;;;2.33;;
12141;SDS011;6134;59.284;18.022;2023-04-25T07:06:50;2.67;;;2.40;;
12141;SDS011;6134;59.284;18.022;2023-04-25T07:09:25;2.40;;;2.20;;
12141;SDS011;6134;59.284;18.022;2023-04-25T07:11:54;3.67;;;2.30;;
12141;SDS011;6134;59.284;18.022;2023-04-25T07:14:24;2.55;;;2.35;;
12141;SDS011;6134;59.284;18.022;2023-04-25T07:16:54;3.55;;;2.30;;
12141;SDS011;6134;59.284;18.022;2023-04-25T07:19:26;3.83;;;2.25;;
12141;SDS011;6134;59.284;18.022;2023-04-25T07:22:00;2.88;;;2.10;;
12141;SDS011;6134;59.284;18.022;2023-04-25T07:24:30;2.20;;;2.00;;
12141;SDS011;6134;59.284;18.022;2023-04-25T07:26:59;3.40;;;2.42;;
12141;SDS011;6134;59.284;18.022;2023-04-25T07:29:47;2.60;;;2.20;;
12141;SDS011;6134;59.284;18.022;2023-04-25T07:32:17;2.80;;;2.50;;
12141;SDS011;6134;59.284;18.022;2023-04-25T07:34:46;3.30;;;2.20;;
12141;SDS011;6134;59.284;18.022;2023-04-25T07:37:15;2.63;;;2.42;;
12141;SDS011;6134;59.284;18.022;2023-04-25T07:40:08;3.03;;;2.45;;
12141;SDS011;6134;59.284;18.022;2023-04-25T07:42:43;4.13;;;2.80;;
12141;SDS011;6134;59.284;18.022;2023-04-25T07:45:16;3.30;;;2.65;;
12141;SDS011;6134;59.284;18.022;2023-04-25T07:47:46;3.03;;;2.70;;
12141;SDS011;6134;59.284;18.022;2023-04-25T07:50:16;2.83;;;2.35;;
12141;SDS011;6134;59.284;18.022;2023-04-25T07:52:46;4.65;;;2.65;;
12141;SDS011;6134;59.284;18.022;2023-04-25T07:55:21;3.40;;;2.83;;
12141;SDS011;6134;59.284;18.022;2023-04-25T07:57:59;3.65;;;3.00;;
12141;SDS011;6134;59.284;18.022;2023-04-25T08:00:29;3.10;;;2.80;;
12141;SDS011;6134;59.284;18.022;2023-04-25T08:03:19;3.00;;;2.70;;
12141;SDS011;6134;59.284;18.022;2023-04-25T08:05:50;3.22;;;2.60;;
12141;SDS011;6134;59.284;18.022;2023-04-25T08:08:19;5.00;;;3.30;;
12141;SDS011;6134;59.284;18.022;2023-04-25T08:10:48;4.15;;;3.00;;
12141;SDS011;6134;59.284;18.022;2023-04-25T08:13:17;3.95;;;3.30;;
12141;SDS011;6134;59.284;18.022;2023-04-25T08:15:46;6.03;;;3.78;;
12141;SDS011;6134;59.284;18.022;2023-04-25T08:18:15;3.05;;;2.85;;
12141;SDS011;6134;59.284;18.022;2023-04-25T08:20:48;4.75;;;2.83;;
12141;SDS011;6134;59.284;18.022;2023-04-25T08:23:17;3.70;;;3.30;;
12141;SDS011;6134;59.284;18.022;2023-04-25T08:25:51;5.53;;;3.72;;
12141;SDS011;6134;59.284;18.022;2023-04-25T08:28:23;3.58;;;3.15;;
12141;SDS011;6134;59.284;18.022;2023-04-25T08:30:53;3.97;;;3.58;;
12141;SDS011;6134;59.284;18.022;2023-04-25T08:33:22;3.90;;;3.50;;
12141;SDS011;6134;59.284;18.022;2023-04-25T08:36:12;4.38;;;3.67;;
12141;SDS011;6134;59.284;18.022;2023-04-25T08:38:57;4.82;;;3.60;;
12141;SDS011;6134;59.284;18.022;2023-04-25T08:41:26;5.50;;;3.90;;
12141;SDS011;6134;59.284;18.022;2023-04-25T08:43:56;3.80;;;3.45;;
12141;SDS011;6134;59.284;18.022;2023-04-25T08:46:26;4.65;;;3.83;;
12141;SDS011;6134;59.284;18.022;2023-04-25T08:49:10;5.25;;;3.47;;
12141;SDS011;6134;59.284;18.022;2023-04-25T08:51:43;5.78;;;4.03;;
12141;SDS011;6134;59.284;18.022;2023-04-25T08:54:15;3.75;;;3.35;;
12141;SDS011;6134;59.284;18.022;2023-04-25T08:57:03;5.00;;;3.72;;
12141;SDS011;6134;59.284;18.022;2023-04-25T08:59:32;4.60;;;3.80;;
12141;SDS011;6134;59.284;18.022;2023-04-25T09:02:05;5.55;;;3.90;;
12141;SDS011;6134;59.284;18.022;2023-04-25T09:04:36;4.68;;;4.00;;
12141;SDS011;6134;59.284;18.022;2023-04-25T09:07:06;5.28;;;4.20;;
12141;SDS011;6134;59.284;18.022;2023-04-25T09:09:35;7.75;;;4.53;;
12141;SDS011;6134;59.284;18.022;2023-04-25T09:12:05;6.72;;;4.30;;
12141;SDS011;6134;59.284;18.022;2023-04-25T09:14:34;4.50;;;3.95;;
12141;SDS011;6134;59.284;18.022;2023-04-25T09:17:19;4.63;;;3.95;;
12141;SDS011;6134;59.284;18.022;2023-04-25T09:19:51;5.07;;;3.97;;
12141;SDS011;6134;59.284;18.022;2023-04-25T09:22:32;5.07;;;4.07;;
12141;SDS011;6134;59.284;18.022;2023-04-25T09:25:02;4.43;;;3.65;;
12141;SDS011;6134;59.284;18.022;2023-04-25T09:27:31;4.82;;;3.72;;
12141;SDS011;6134;59.284;18.022;2023-04-25T09:30:15;4.28;;;3.88;;
12141;SDS011;6134;59.284;18.022;2023-04-25T09:33:19;4.03;;;3.63;;
12141;SDS011;6134;59.284;18.022;2023-04-25T09:35:49;4.30;;;3.90;;
12141;SDS011;6134;59.284;18.022;2023-04-25T09:38:41;4.70;;;3.85;;
12141;SDS011;6134;59.284;18.022;2023-04-25T09:41:37;3.90;;;3.50;;
12141;SDS011;6134;59.284;18.022;2023-04-25T09:44:07;3.40;;;3.10;;
12141;SDS011;6134;59.284;18.022;2023-04-25T09:46:37;3.03;;;2.72;;
12141;SDS011;6134;59.284;18.022;2023-04-25T09:49:11;3.25;;;2.80;;
12141;SDS011;6134;59.284;18.022;2023-04-25T09:51:58;2.92;;;2.63;;
12141;SDS011;6134;59.284;18.022;2023-04-25T09:54:45;2.80;;;2.45;;
12141;SDS011;6134;59.284;18.022;2023-04-25T09:57:23;2.72;;;2.50;;
12141;SDS011;6134;59.284;18.022;2023-04-25T09:59:55;3.33;;;2.35;;
12141;SDS011;6134;59.284;18.022;2023-04-25T10:02:28;2.85;;;2.60;;
12141;SDS011;6134;59.284;18.022;2023-04-25T10:05:05;3.78;;;3.47;;
12141;SDS011;6134;59.284;18.022;2023-04-25T10:07:39;3.95;;;3.53;;
12141;SDS011;6134;59.284;18.022;2023-04-25T10:10:14;2.88;;;2.67;;
12141;SDS011;6134;59.284;18.022;2023-04-25T10:12:45;3.00;;;2.70;;
12141;SDS011;6134;59.284;18.022;2023-04-25T10:15:16;3.05;;;2.75;;
12141;SDS011;6134;59.284;18.022;2023-04-25T10:17:45;3.90;;;3.05;;
12141;SDS011;6134;59.284;18.022;2023-04-25T10:20:15;4.60;;;3.08;;
12141;SDS011;6134;59.284;18.022;2023-04-25T10:22:45;3.25;;;2.92;;
12141;SDS011;6134;59.284;18.022;2023-04-25T10:25:16;3.72;;;3.35;;
12141;SDS011;6134;59.284;18.022;2023-04-25T10:27:45;4.40;;;3.67;;
12141;SDS011;6134;59.284;18.022;2023-04-25T10:30:14;3.53;;;3.22;;
12141;SDS011;6134;59.284;18.022;2023-04-25T10:32:43;3.50;;;3.20;;
12141;SDS011;6134;59.284;18.022;2023-04-25T10:35:13;3.97;;;3.58;;
12141;SDS011;6134;59.284;18.022;2023-04-25T10:37:56;3.47;;;3.10;;
12141;SDS011;6134;59.284;18.022;2023-04-25T10:40:29;6.47;;;3.50;;
12141;SDS011;6134;59.284;18.022;2023-04-25T10:45:52;5.53;;;3.20;;
12141;SDS011;6134;59.284;18.022;2023-04-25T10:48:25;4.78;;;3.33;;
12141;SDS011;6134;59.284;18.022;2023-04-25T10:51:06;4.50;;;4.00;;
12141;SDS011;6134;59.284;18.022;2023-04-25T10:53:36;4.45;;;3.53;;
12141;SDS011;6134;59.284;18.022;2023-04-25T10:56:10;4.95;;;3.35;;
12141;SDS011;6134;59.284;18.022;2023-04-25T10:58:43;4.63;;;3.20;;
12141;SDS011;6134;59.284;18.022;2023-04-25T11:01:14;3.75;;;3.28;;
12141;SDS011;6134;59.284;18.022;2023-04-25T11:03:43;7.05;;;3.40;;
12141;SDS011;6134;59.284;18.022;2023-04-25T11:06:17;3.42;;;3.08;;
12141;SDS011;6134;59.284;18.022;2023-04-25T11:08:49;4.95;;;3.05;;
12141;SDS011;6134;59.284;18.022;2023-04-25T11:11:20;3.42;;;2.80;;
12141;SDS011;6134;59.284;18.022;2023-04-25T11:13:49;2.80;;;2.60;;
12141;SDS011;6134;59.284;18.022;2023-04-25T11:16:18;6.10;;;2.95;;
12141;SDS011;6134;59.284;18.022;2023-04-25T11:18:50;7.90;;;3.03;;
12141;SDS011;6134;59.284;18.022;2023-04-25T11:21:19;3.47;;;2.75;;
12141;SDS011;6134;59.284;18.022;2023-04-25T11:23:48;2.92;;;2.65;;
12141;SDS011;6134;59.284;18.022;2023-04-25T11:26:20;3.17;;;2.55;;
12141;SDS011;6134;59.284;18.022;2023-04-25T11:28:49;5.35;;;2.88;;
12141;SDS011;6134;59.284;18.022;2023-04-25T11:31:20;3.10;;;2.90;;
12141;SDS011;6134;59.284;18.022;2023-04-25T11:33:49;3.22;;;2.92;;
12141;SDS011;6134;59.284;18.022;2023-04-25T11:36:18;3.42;;;3.13;;
12141;SDS011;6134;59.284;18.022;2023-04-25T11:38:47;3.42;;;3.00;;
12141;SDS011;6134;59.284;18.022;2023-04-25T11:41:16;3.85;;;2.88;;
12141;SDS011;6134;59.284;18.022;2023-04-25T11:43:46;4.63;;;2.85;;
12141;SDS011;6134;59.284;18.022;2023-04-25T11:46:16;3.05;;;2.60;;
12141;SDS011;6134;59.284;18.022;2023-04-25T11:48:46;7.97;;;3.58;;
12141;SDS011;6134;59.284;18.022;2023-04-25T11:51:17;5.95;;;3.08;;
12141;SDS011;6134;59.284;18.022;2023-04-25T11:53:46;3.03;;;2.72;;
12141;SDS011;6134;59.284;18.022;2023-04-25T11:56:15;3.00;;;2.60;;
12141;SDS011;6134;59.284;18.022;2023-04-25T12:01:35;3.10;;;2.80;;
12141;SDS011;6134;59.284;18.022;2023-04-25T12:04:11;4.32;;;2.72;;
12141;SDS011;6134;59.284;18.022;2023-04-25T12:06:40;4.85;;;2.95;;
12141;SDS011;6134;59.284;18.022;2023-04-25T12:09:10;4.15;;;2.53;;
12141;SDS011;6134;59.284;18.022;2023-04-25T12:11:43;3.25;;;3.00;;
12141;SDS011;6134;59.284;18.022;2023-04-25T12:14:12;6.97;;;2.80;;
12141;SDS011;6134;59.284;18.022;2023-04-25T12:16:50;3.53;;;3.22;;
12141;SDS011;6134;59.284;18.022;2023-04-25T12:19:19;4.28;;;3.88;;
12141;SDS011;6134;59.284;18.022;2023-04-25T12:21:48;4.15;;;3.13;;
12141;SDS011;6134;59.284;18.022;2023-04-25T12:24:26;3.45;;;3.20;;
12141;SDS011;6134;59.284;18.022;2023-04-25T12:26:58;6.50;;;3.22;;
12141;SDS011;6134;59.284;18.022;2023-04-25T12:29:28;4.65;;;3.20;;
12141;SDS011;6134;59.284;18.022;2023-04-25T12:32:15;6.38;;;3.40;;
12141;SDS011;6134;59.284;18.022;2023-04-25T12:34:45;5.63;;;3.50;;
12141;SDS011;6134;59.284;18.022;2023-04-25T12:37:13;4.05;;;3.30;;
12141;SDS011;6134;59.284;18.022;2023-04-25T12:39:42;5.88;;;3.45;;
12141;SDS011;6134;59.284;18.022;2023-04-25T12:42:11;3.83;;;3.10;;
12141;SDS011;6134;59.284;18.022;2023-04-25T12:44:40;3.33;;;3.00;;
12141;SDS011;6134;59.284;18.022;2023-04-25T12:47:09;5.13;;;3.47;;
12141;SDS011;6134;59.284;18.022;2023-04-25T12:49:39;4.85;;;3.45;;
12141;SDS011;6134;59.284;18.022;2023-04-25T12:52:07;9.60;;;3.83;;
12141;SDS011;6134;59.284;18.022;2023-04-25T12:54:36;6.57;;;3.40;;
12141;SDS011;6134;59.284;18.022;2023-04-25T12:57:05;4.25;;;3.00;;
12141;SDS011;6134;59.284;18.022;2023-04-25T12:59:34;6.18;;;3.03;;
12141;SDS011;6134;59.284;18.022;2023-04-25T13:02:02;4.20;;;3.80;;
12141;SDS011;6134;59.284;18.022;2023-04-25T13:04:31;8.90;;;3.60;;
12141;SDS011;6134;59.284;18.022;2023-04-25T13:07:01;5.32;;;3.38;;
12141;SDS011;6134;59.284;18.022;2023-04-25T13:09:30;3.13;;;2.78;;
12141;SDS011;6134;59.284;18.022;2023-04-25T13:11:59;3.53;;;3.22;;
12141;SDS011;6134;59.284;18.022;2023-04-25T13:14:28;3.70;;;3.00;;
12141;SDS011;6134;59.284;18.022;2023-04-25T13:16:57;3.63;;;3.33;;
12141;SDS011;6134;59.284;18.022;2023-04-25T13:19:26;6.57;;;3.80;;
12141;SDS011;6134;59.284;18.022;2023-04-25T13:21:54;6.93;;;3.47;;
12141;SDS011;6134;59.284;18.022;2023-04-25T13:24:25;3.95;;;3.55;;
12141;SDS011;6134;59.284;18.022;2023-04-25T13:26:54;8.02;;;3.50;;
12141;SDS011;6134;59.284;18.022;2023-04-25T13:29:22;5.30;;;3.13;;
12141;SDS011;6134;59.284;18.022;2023-04-25T13:31:51;6.13;;;3.25;;
12141;SDS011;6134;59.284;18.022;2023-04-25T13:34:20;7.35;;;3.53;;
12141;SDS011;6134;59.284;18.022;2023-04-25T13:36:49;9.05;;;3.35;;
12141;SDS011;6134;59.284;18.022;2023-04-25T13:39:18;5.28;;;3.45;;
12141;SDS011;6134;59.284;18.022;2023-04-25T13:41:48;3.15;;;2.85;;
12141;SDS011;6134;59.284;18.022;2023-04-25T13:44:17;5.95;;;3.30;;
12141;SDS011;6134;59.284;18.022;2023-04-25T13:46:46;4.68;;;3.58;;
12141;SDS011;6134;59.284;18.022;2023-04-25T13:49:14;6.18;;;3.88;;
12141;SDS011;6134;59.284;18.022;2023-04-25T13:51:44;4.47;;;3.28;;
12141;SDS011;6134;59.284;18.022;2023-04-25T13:54:13;4.53;;;3.70;;
12141;SDS011;6134;59.284;18.022;2023-04-25T13:56:41;6.80;;;3.45;;
12141;SDS011;6134;59.284;18.022;2023-04-25T13:59:11;7.43;;;3.35;;
12141;SDS011;6134;59.284;18.022;2023-04-25T14:01:40;6.03;;;3.67;;
12141;SDS011;6134;59.284;18.022;2023-04-25T14:04:09;16.50;;;3.72;;
12141;SDS011;6134;59.284;18.022;2023-04-25T14:06:38;5.72;;;3.55;;
12141;SDS011;6134;59.284;18.022;2023-04-25T14:09:07;4.97;;;3.75;;
12141;SDS011;6134;59.284;18.022;2023-04-25T14:11:37;5.13;;;3.40;;
12141;SDS011;6134;59.284;18.022;2023-04-25T14:14:05;4.85;;;3.03;;
12141;SDS011;6134;59.284;18.022;2023-04-25T14:16:35;5.68;;;3.58;;
12141;SDS011;6134;59.284;18.022;2023-04-25T14:19:04;4.93;;;3.55;;
12141;SDS011;6134;59.284;18.022;2023-04-25T14:21:33;8.93;;;3.60;;
12141;SDS011;6134;59.284;18.022;2023-04-25T14:24:02;6.15;;;4.45;;
12141;SDS011;6134;59.284;18.022;2023-04-25T14:26:31;8.90;;;3.90;;
12141;SDS011;6134;59.284;18.022;2023-04-25T14:29:01;6.30;;;3.92;;
12141;SDS011;6134;59.284;18.022;2023-04-25T14:31:30;5.50;;;3.40;;
12141;SDS011;6134;59.284;18.022;2023-04-25T14:34:01;7.30;;;3.60;;
12141;SDS011;6134;59.284;18.022;2023-04-25T14:36:30;8.25;;;4.00;;
12141;SDS011;6134;59.284;18.022;2023-04-25T14:38:59;4.90;;;3.70;;
12141;SDS011;6134;59.284;18.022;2023-04-25T14:41:28;8.70;;;4.18;;
12141;SDS011;6134;59.284;18.022;2023-04-25T14:43:57;4.47;;;3.67;;
12141;SDS011;6134;59.284;18.022;2023-04-25T14:46:27;5.45;;;3.60;;
12141;SDS011;6134;59.284;18.022;2023-04-25T14:48:55;3.55;;;3.08;;
12141;SDS011;6134;59.284;18.022;2023-04-25T14:51:26;3.63;;;2.78;;
12141;SDS011;6134;59.284;18.022;2023-04-25T14:53:54;4.85;;;3.55;;
12141;SDS011;6134;59.284;18.022;2023-04-25T14:56:23;4.22;;;3.13;;
12141;SDS011;6134;59.284;18.022;2023-04-25T14:58:52;3.97;;;2.63;;
12141;SDS011;6134;59.284;18.022;2023-04-25T15:01:21;2.65;;;2.10;;
12141;SDS011;6134;59.284;18.022;2023-04-25T15:03:51;3.00;;;2.08;;
12141;SDS011;6134;59.284;18.022;2023-04-25T15:06:20;6.13;;;2.17;;
12141;SDS011;6134;59.284;18.022;2023-04-25T15:08:51;4.95;;;2.20;;
12141;SDS011;6134;59.284;18.022;2023-04-25T15:11:19;2.45;;;1.90;;
12141;SDS011;6134;59.284;18.022;2023-04-25T15:13:48;3.72;;;1.92;;
12141;SDS011;6134;59.284;18.022;2023-04-25T15:16:18;4.20;;;1.90;;
12141;SDS011;6134;59.284;18.022;2023-04-25T15:18:48;5.88;;;1.85;;
12141;SDS011;6134;59.284;18.022;2023-04-25T15:21:17;2.20;;;2.00;;
12141;SDS011;6134;59.284;18.022;2023-04-25T15:23:46;3.30;;;2.05;;
12141;SDS011;6134;59.284;18.022;2023-04-25T15:26:16;2.10;;;1.83;;